Harrison, AR

6:59 AM CDT on March 24, 2017 (GMT -0500)
AJ5C - Northwest Harrison | | Change Station
Active Advisory: Lake Wind Advisory

Elev 1266 ft 36.26 °N, 93.15 °W | Updated 10 seconds ago

Clear
Clear
65.6 °F
Feels Like 65.6 °F
N
8.8
Wind Variable Wind from WSW
Gusts 8.8 mph

Today
High -- | Low -- °F
--% Chance of Precip.
Yesterday
High -- | Low -- °F
Precip. -- in
Pressure 29.96 in
Visibility 10.0 miles
Clouds Clear
Dew Point 51 °F
Humidity 60%
Rainfall 0.00 in
Snow Depth Not available.
7:09 AM 7:27 PM
Waning Crescent, 15% visible
METAR KHRO 241153Z AUTO 18010G18KT 10SM CLR 18/09 A2999 RMK AO2 SLP144 T01830094 10211 20183 51022
Pressure 29.96 in
Visibility 10.0 miles
Clouds Clear
Dew Point 51 °F
Humidity 60%
Rainfall 0.00 in
Snow Depth Not available.
7:09 AM 7:27 PM
Waning Crescent, 15% visible
METAR KHRO 241153Z AUTO 18010G18KT 10SM CLR 18/09 A2999 RMK AO2 SLP144 T01830094 10211 20183 51022

Get Your Daily Forecast Email!

Thanks for signing up!

Be on the lookout for a verification email in your inbox.

You'll start receiving severe weather alerts in your inbox..

×

10-Day Weather Forecast

Almanac

Astronomy

Mar. 24, 2017 Rise Set
Actual Time
Civil Twilight
Nautical Twilight
Astronomical Twilight
Moon
Length of Visible Light
Length of Day
Tomorrow will be .
, % of the Moon is Illuminated

Today's Extremes

State Highs State Lows

Community

WunderPhotos

Upload Photos

1,962,540 photos uploaded!

WunderBlog® & News

Nearby

Air Quality

  Air Quality AQ Index Pollutant
Not available.

Snow Depth

Station Depth Elevation

Earthquake Activity

City Distance Mag. Time & Date
Minimum magnitude displayed is 2.5.

Earthquake Activity

City Distance Mag. Time & Date
Minimum magnitude displayed is 2.5.

Coastal Water Temperatures

Place Temperature

Stations

Nearby Weather Stations

Station Location Temp. Windchill Dew Point Humidity Wind Precip. Elev Updated Type
                   

Watches & Warnings

Lake Wind Advisory
Issued: 3:47 AM CDT Mar. 24, 2017 – National Weather Service

... Lake Wind Advisory remains in effect from 10 am this morning
to 10 PM CDT this evening...

* event: expect windy conditions today as southerly winds of 15
to 25 mph... with gusts of 30 to 35 mph possible.

* Areas affected: a large portion of Arkansas.

* Timing: expect the breezy to windy conditions to develop during
the late morning hours today... persisting through the early
evening hours. Expect the conditions to decrease by late evening.

Precautionary/preparedness actions...

A lake Wind Advisory indicates that winds will cause rough chop
on area lakes and rivers. Small boats will be especially prone to
capsizing. Extra caution should be taken if out on area lakes and
rivers today.


59